createdAt,value
2022-08-22T00:00:02.829Z,34.77
2022-08-22T00:01:43.618Z,34.68
2022-08-22T00:02:53.053Z,33.72
2022-08-22T00:02:54.356Z,35.58
2022-08-22T00:02:55.559Z,35.02
2022-08-22T00:02:55.559Z,35.55
2022-08-22T00:02:56.263Z,33.30
2022-08-22T00:02:58.682Z,35.32
2022-08-22T00:03:10.808Z,35.40
2022-08-22T00:03:15.778Z,35.52
2022-08-22T00:04:44.678Z,34.27
2022-08-22T00:05:55.415Z,34.11
2022-08-22T00:07:39.165Z,34.17
2022-08-22T00:08:54.582Z,34.11
2022-08-22T00:10:58.550Z,34.13
2022-08-22T00:12:30.440Z,34.08
2022-08-22T00:14:01.526Z,33.97
2022-08-22T00:15:43.270Z,33.91
2022-08-22T00:17:31.902Z,33.94
2022-08-22T00:18:52.241Z,33.94
2022-08-22T00:20:03.241Z,33.83
2022-08-22T00:21:30.661Z,33.87
2022-08-22T00:22:51.549Z,34.00
2022-08-22T00:24:16.645Z,34.13
2022-08-22T00:25:32.275Z,34.06
2022-08-22T00:27:16.719Z,34.19
2022-08-22T00:28:26.128Z,34.23
2022-08-22T00:30:00.202Z,34.21
2022-08-22T00:31:30.722Z,34.13
2022-08-22T00:32:53.168Z,34.12
2022-08-22T00:34:18.964Z,34.14
2022-08-22T00:35:45.321Z,34.16
2022-08-22T00:37:18.520Z,34.23
2022-08-22T00:38:36.098Z,34.18
2022-08-22T00:40:21.243Z,34.12
2022-08-22T00:41:37.996Z,33.97
2022-08-22T00:43:21.775Z,33.72
2022-08-22T00:44:37.674Z,33.91
2022-08-22T00:46:19.471Z,33.59
2022-08-22T00:47:38.045Z,33.70
2022-08-22T00:49:05.091Z,33.66
2022-08-22T00:50:38.952Z,33.61
2022-08-22T00:51:50.792Z,33.63
2022-08-22T00:53:19.161Z,33.69
2022-08-22T00:54:35.040Z,33.84
2022-08-22T00:55:59.899Z,34.01
2022-08-22T00:57:17.031Z,33.63
2022-08-22T00:58:32.614Z,33.43
2022-08-22T01:00:06.094Z,33.42
2022-08-22T01:01:14.946Z,33.46
2022-08-22T01:03:03.498Z,33.46
2022-08-22T01:04:33.550Z,33.46
2022-08-22T01:06:05.521Z,33.65
2022-08-22T01:07:38.165Z,33.48
2022-08-22T01:09:00.754Z,33.27
2022-08-22T01:10:54.145Z,33.25
2022-08-22T01:12:19.140Z,33.16
2022-08-22T01:13:37.591Z,33.03
2022-08-22T01:15:05.338Z,33.00
2022-08-22T01:16:44.600Z,32.85
2022-08-22T01:18:07.392Z,32.94
2022-08-22T01:19:40.310Z,33.09
2022-08-22T01:20:56.503Z,33.09
2022-08-22T01:22:14.519Z,33.16
2022-08-22T01:23:43.016Z,33.10
2022-08-22T01:25:26.078Z,32.96
2022-08-22T01:26:51.943Z,32.70
2022-08-22T01:28:19.357Z,32.54
2022-08-22T01:29:55.104Z,32.47
2022-08-22T01:31:45.713Z,32.26
2022-08-22T01:33:28.716Z,32.06
2022-08-22T01:35:00.277Z,32.04
2022-08-22T01:36:29.887Z,31.85
2022-08-22T01:38:08.102Z,31.75
2022-08-22T01:39:52.050Z,31.68
2022-08-22T01:41:23.855Z,31.69
2022-08-22T01:42:34.605Z,31.81
2022-08-22T01:43:59.757Z,31.91
2022-08-22T01:45:22.388Z,31.82
2022-08-22T01:46:43.975Z,31.81
2022-08-22T01:48:07.962Z,31.75
2022-08-22T01:49:55.185Z,31.58
2022-08-22T01:51:29.094Z,31.37
2022-08-22T01:52:45.909Z,31.12
2022-08-22T01:54:11.166Z,31.08
2022-08-22T01:55:37.487Z,31.03
2022-08-22T01:56:47.916Z,30.94
2022-08-22T01:58:02.663Z,30.85
2022-08-22T01:59:11.246Z,30.68
2022-08-22T02:00:19.386Z,30.55
2022-08-22T02:01:53.910Z,30.44
2022-08-22T02:03:07.532Z,30.33
2022-08-22T02:04:39.387Z,30.16
2022-08-22T02:06:14.915Z,30.01
2022-08-22T02:07:58.726Z,29.93
2022-08-22T02:09:20.586Z,29.71
2022-08-22T02:10:51.412Z,29.53
2022-08-22T02:12:23.656Z,29.37
2022-08-22T02:13:49.842Z,29.17
2022-08-22T02:15:35.433Z,28.97
2022-08-22T02:17:01.592Z,28.60
2022-08-22T02:18:09.922Z,28.35
2022-08-22T02:20:01.914Z,28.20
2022-08-22T02:21:40.725Z,27.92
2022-08-22T02:23:19.591Z,27.71
2022-08-22T02:24:35.637Z,27.54
2022-08-22T02:26:05.032Z,27.39
2022-08-22T02:27:15.584Z,27.23
2022-08-22T02:28:35.241Z,27.12
2022-08-22T02:30:06.946Z,27.01
2022-08-22T02:31:26.757Z,26.88
2022-08-22T02:32:43.975Z,26.74
2022-08-22T02:34:02.145Z,26.63
2022-08-22T02:35:21.543Z,26.54
2022-08-22T02:37:07.668Z,26.43
2022-08-22T02:38:34.421Z,26.31
2022-08-22T02:40:10.233Z,26.22
2022-08-22T02:41:53.554Z,26.13
2022-08-22T02:43:40.817Z,26.05
2022-08-22T02:45:02.523Z,25.95
2022-08-22T02:46:31.709Z,25.87
2022-08-22T02:48:03.232Z,25.80
2022-08-22T02:49:13.267Z,25.73
2022-08-22T02:50:40.509Z,25.68
2022-08-22T02:52:16.733Z,25.62
2022-08-22T02:53:33.355Z,25.55
2022-08-22T02:54:55.658Z,25.51
2022-08-22T02:56:36.486Z,25.46
2022-08-22T02:58:03.609Z,25.39
2022-08-22T02:59:28.956Z,25.33
2022-08-22T03:00:56.402Z,25.27
2022-08-22T03:02:49.595Z,25.21
2022-08-22T03:04:35.302Z,25.15
2022-08-22T03:05:47.241Z,25.08
2022-08-22T03:07:07.912Z,25.06
2022-08-22T03:08:30.332Z,25.01
2022-08-22T03:10:19.235Z,24.97
2022-08-22T03:11:33.709Z,24.90
2022-08-22T03:13:14.867Z,24.85
2022-08-22T03:14:57.547Z,24.80
2022-08-22T03:16:12.746Z,24.75
2022-08-22T03:17:26.312Z,24.72
2022-08-22T03:19:13.235Z,24.70
2022-08-22T03:20:56.418Z,24.66
2022-08-22T03:22:50.301Z,24.61
2022-08-22T03:24:36.113Z,24.54
2022-08-22T03:26:07.567Z,24.49
2022-08-22T03:27:35.909Z,24.45
2022-08-22T03:28:59.124Z,24.41
2022-08-22T03:30:19.136Z,24.39
2022-08-22T03:31:29.748Z,24.36
2022-08-22T03:33:00.147Z,24.32
2022-08-22T03:34:27.648Z,24.28
2022-08-22T03:35:41.583Z,24.24
2022-08-22T03:37:18.412Z,24.22
2022-08-22T03:38:39.384Z,24.19
2022-08-22T03:40:17.664Z,24.17
2022-08-22T03:41:52.861Z,24.14
2022-08-22T03:43:12.787Z,24.10
2022-08-22T03:44:43.204Z,24.08
2022-08-22T03:46:11.684Z,24.04
2022-08-22T03:47:44.405Z,24.00
2022-08-22T03:48:57.947Z,23.96
2022-08-22T03:50:35.998Z,23.91
2022-08-22T03:51:59.853Z,23.87
2022-08-22T03:53:32.253Z,23.83
2022-08-22T03:54:53.950Z,23.80
2022-08-22T03:56:36.993Z,23.78
2022-08-22T03:58:27.999Z,23.75
2022-08-22T04:00:23.296Z,23.72
2022-08-22T04:02:42.094Z,23.68
2022-08-22T04:03:41.477Z,23.62
2022-08-22T04:05:21.511Z,23.59
2022-08-22T04:06:41.487Z,23.56
2022-08-22T04:08:11.265Z,23.54
2022-08-22T04:09:39.173Z,23.51
2022-08-22T04:10:50.491Z,23.49
2022-08-22T04:12:11.524Z,23.48
2022-08-22T04:13:39.878Z,23.45
2022-08-22T04:15:27.607Z,23.42
2022-08-22T04:17:07.189Z,23.39
2022-08-22T04:18:51.923Z,23.35
2022-08-22T04:20:04.286Z,23.31
2022-08-22T04:21:38.763Z,23.29
2022-08-22T04:23:41.064Z,23.24
2022-08-22T04:25:19.224Z,23.20
2022-08-22T04:26:58.359Z,23.15
2022-08-22T04:28:23.808Z,23.11
2022-08-22T04:29:45.959Z,23.08
2022-08-22T04:31:29.787Z,23.07
2022-08-22T04:32:45.935Z,23.05
2022-08-22T04:33:57.791Z,23.05
2022-08-22T04:35:09.135Z,23.03
2022-08-22T04:37:00.934Z,23.01
2022-08-22T04:38:31.956Z,22.97
2022-08-22T04:39:54.347Z,22.94
2022-08-22T04:41:30.254Z,22.90
2022-08-22T04:42:56.784Z,22.87
2022-08-22T04:44:27.118Z,22.86
2022-08-22T04:46:13.567Z,22.83
2022-08-22T04:47:38.358Z,22.80
2022-08-22T04:48:57.560Z,22.77
2022-08-22T04:50:25.275Z,22.76
2022-08-22T04:51:46.029Z,22.74
2022-08-22T04:53:21.732Z,22.71
2022-08-22T04:54:52.590Z,22.68
2022-08-22T04:56:31.652Z,22.64
2022-08-22T04:57:54.856Z,22.60
2022-08-22T04:59:10.467Z,22.58
2022-08-22T05:00:20.281Z,22.57
2022-08-22T05:02:01.366Z,22.56
2022-08-22T05:03:12.411Z,22.53
2022-08-22T05:04:36.948Z,22.52
2022-08-22T05:05:45.197Z,22.49
2022-08-22T05:07:07.535Z,22.47
2022-08-22T05:08:17.863Z,22.45
2022-08-22T05:09:29.269Z,22.43
2022-08-22T05:10:42.705Z,22.42
2022-08-22T05:11:56.077Z,22.40
2022-08-22T05:13:11.941Z,22.40
2022-08-22T05:14:25.837Z,22.36
2022-08-22T05:15:45.059Z,22.33
2022-08-22T05:16:53.817Z,22.31
2022-08-22T05:18:04.520Z,22.29
2022-08-22T05:19:37.567Z,22.26
2022-08-22T05:20:49.738Z,22.23
2022-08-22T05:21:56.994Z,22.20
2022-08-22T05:23:26.246Z,22.18
2022-08-22T05:24:41.790Z,22.18
2022-08-22T05:25:50.498Z,22.17
2022-08-22T05:26:58.688Z,22.15
2022-08-22T05:28:39.583Z,22.13
2022-08-22T05:29:49.844Z,22.10
2022-08-22T05:30:56.951Z,22.06
2022-08-22T05:32:13.277Z,22.04
2022-08-22T05:34:04.142Z,22.01
2022-08-22T05:35:11.938Z,21.98
2022-08-22T05:36:23.234Z,21.97
2022-08-22T05:37:46.463Z,21.95
2022-08-22T05:39:02.912Z,21.94
2022-08-22T05:40:10.930Z,21.94
2022-08-22T05:41:25.316Z,21.91
2022-08-22T05:42:34.800Z,21.88
2022-08-22T05:43:44.719Z,21.86
2022-08-22T05:44:52.155Z,21.84
2022-08-22T05:46:00.228Z,21.82
2022-08-22T05:47:26.147Z,21.81
2022-08-22T05:48:44.852Z,21.79
2022-08-22T05:50:03.536Z,21.77
2022-08-22T05:51:30.959Z,21.74
2022-08-22T05:53:02.196Z,21.72
2022-08-22T05:54:33.531Z,21.69
2022-08-22T05:56:14.806Z,21.64
2022-08-22T05:57:38.637Z,21.61
2022-08-22T05:59:08.220Z,21.58
2022-08-22T06:00:25.767Z,21.55
2022-08-22T06:01:38.006Z,21.54
2022-08-22T06:02:52.547Z,21.51
2022-08-22T06:04:53.358Z,21.50
2022-08-22T06:06:07.105Z,21.48
2022-08-22T06:07:24.237Z,21.44
2022-08-22T06:08:40.235Z,21.41
2022-08-22T06:09:51.287Z,21.41
2022-08-22T06:11:01.377Z,21.39
2022-08-22T06:12:59.975Z,21.39
2022-08-22T06:14:43.542Z,21.36
2022-08-22T06:15:56.654Z,21.33
2022-08-22T06:17:11.415Z,21.33
2022-08-22T06:18:22.037Z,21.32
2022-08-22T06:19:29.529Z,21.30
2022-08-22T06:21:02.082Z,21.29
2022-08-22T06:22:11.744Z,21.25
2022-08-22T06:23:34.206Z,21.22
2022-08-22T06:24:42.361Z,21.21
2022-08-22T06:25:50.895Z,21.20
2022-08-22T06:27:03.578Z,21.20
2022-08-22T06:28:19.353Z,21.19
2022-08-22T06:30:05.879Z,21.17
2022-08-22T06:31:24.944Z,21.14
2022-08-22T06:32:59.543Z,21.12
2022-08-22T06:34:13.591Z,21.09
2022-08-22T06:36:10.209Z,21.09
2022-08-22T06:37:27.818Z,21.06
2022-08-22T06:38:52.754Z,21.04
2022-08-22T06:40:03.815Z,21.03
2022-08-22T06:41:12.368Z,21.02
2022-08-22T06:42:26.239Z,21.01
2022-08-22T06:43:39.845Z,20.99
2022-08-22T06:45:01.585Z,20.97
2022-08-22T06:46:09.197Z,20.94
2022-08-22T06:47:19.595Z,20.92
2022-08-22T06:48:26.563Z,20.90
2022-08-22T06:49:34.670Z,20.89
2022-08-22T06:50:44.346Z,20.88
2022-08-22T06:51:52.409Z,20.87
2022-08-22T06:53:09.190Z,20.85
2022-08-22T06:54:25.142Z,20.84
2022-08-22T06:55:32.366Z,20.83
2022-08-22T06:56:49.013Z,20.82
2022-08-22T06:58:45.795Z,20.82
2022-08-22T06:59:55.720Z,20.78
2022-08-22T07:01:15.146Z,20.76
2022-08-22T07:02:30.018Z,20.76
2022-08-22T07:03:43.686Z,20.75
2022-08-22T07:04:55.100Z,20.76
2022-08-22T07:06:05.846Z,20.75
2022-08-22T07:07:13.927Z,20.74
2022-08-22T07:08:22.109Z,20.73
2022-08-22T07:09:36.442Z,20.71
2022-08-22T07:11:05.557Z,20.69
2022-08-22T07:12:20.110Z,20.69
2022-08-22T07:13:29.531Z,20.67
2022-08-22T07:14:51.221Z,20.66
2022-08-22T07:16:01.142Z,20.65
2022-08-22T07:17:11.054Z,20.64
2022-08-22T07:18:26.303Z,20.64
2022-08-22T07:19:35.845Z,20.63
2022-08-22T07:20:55.988Z,20.62
2022-08-22T07:22:13.308Z,20.61
2022-08-22T07:23:35.311Z,20.59
2022-08-22T07:24:47.392Z,20.57
2022-08-22T07:25:55.912Z,20.56
2022-08-22T07:27:29.720Z,20.56
2022-08-22T07:28:51.511Z,20.52
2022-08-22T07:30:17.337Z,20.49
2022-08-22T07:31:40.854Z,20.48
2022-08-22T07:33:25.944Z,20.46
2022-08-22T07:35:08.032Z,20.45
2022-08-22T07:36:23.311Z,20.44
2022-08-22T07:37:48.739Z,20.43
2022-08-22T07:39:33.641Z,20.43
2022-08-22T07:41:03.978Z,20.40
2022-08-22T07:42:19.915Z,20.37
2022-08-22T07:43:41.384Z,20.35
2022-08-22T07:45:01.575Z,20.35
2022-08-22T07:46:39.547Z,20.34
2022-08-22T07:48:26.175Z,20.33
2022-08-22T07:49:59.067Z,20.32
2022-08-22T07:51:15.010Z,20.31
2022-08-22T07:52:26.490Z,20.30
2022-08-22T07:53:41.829Z,20.28
2022-08-22T07:55:15.532Z,20.27
2022-08-22T07:56:28.064Z,20.25
2022-08-22T07:57:40.984Z,20.23
2022-08-22T07:58:49.969Z,20.22
2022-08-22T08:00:00.340Z,20.22
2022-08-22T08:01:12.026Z,20.21
2022-08-22T08:02:20.037Z,20.20
2022-08-22T08:03:29.201Z,20.19
2022-08-22T08:04:40.465Z,20.17
2022-08-22T08:05:48.915Z,20.18
2022-08-22T08:06:59.333Z,20.17
2022-08-22T08:08:15.527Z,20.14
2022-08-22T08:09:26.733Z,20.11
2022-08-22T08:10:38.564Z,20.09
2022-08-22T08:11:46.233Z,20.08
2022-08-22T08:13:02.554Z,20.08
2022-08-22T08:14:13.779Z,20.07
2022-08-22T08:15:24.275Z,20.06
2022-08-22T08:16:45.400Z,20.06
2022-08-22T08:18:01.619Z,20.05
2022-08-22T08:19:12.116Z,20.04
2022-08-22T08:20:22.625Z,20.04
2022-08-22T08:21:44.071Z,20.02
2022-08-22T08:22:51.411Z,20.00
2022-08-22T08:24:02.434Z,19.99
2022-08-22T08:25:09.515Z,19.98
2022-08-22T08:26:19.918Z,19.97
2022-08-22T08:27:50.474Z,19.95
2022-08-22T08:28:59.696Z,19.93
2022-08-22T08:30:20.379Z,19.91
2022-08-22T08:31:42.642Z,19.90
2022-08-22T08:32:59.619Z,19.89
2022-08-22T08:34:27.105Z,19.87
2022-08-22T08:35:42.401Z,19.86
2022-08-22T08:37:19.464Z,19.86
2022-08-22T08:38:29.369Z,19.84
2022-08-22T08:39:39.039Z,19.82
2022-08-22T08:41:01.609Z,19.82
2022-08-22T08:43:05.019Z,19.81
2022-08-22T08:44:31.900Z,19.77
2022-08-22T08:46:17.616Z,19.76
2022-08-22T08:47:49.003Z,19.74
2022-08-22T08:49:27.740Z,19.73
2022-08-22T08:50:51.927Z,19.69
2022-08-22T08:52:38.699Z,19.67
2022-08-22T08:54:01.601Z,19.64
2022-08-22T08:55:22.822Z,19.62
2022-08-22T08:57:02.246Z,19.59
2022-08-22T08:58:34.367Z,19.58
2022-08-22T09:00:27.222Z,19.57
2022-08-22T09:02:05.957Z,19.56
2022-08-22T09:03:51.491Z,19.56
2022-08-22T09:05:20.800Z,19.55
2022-08-22T09:07:02.437Z,19.54
2022-08-22T09:08:52.658Z,19.54
2022-08-22T09:10:29.638Z,19.51
2022-08-22T09:11:54.762Z,19.50
2022-08-22T09:13:15.292Z,19.49
2022-08-22T09:14:50.406Z,19.48
2022-08-22T09:16:04.439Z,19.47
2022-08-22T09:17:48.173Z,19.47
2022-08-22T09:19:05.563Z,19.47
2022-08-22T09:20:47.803Z,19.46
2022-08-22T09:22:14.564Z,19.45
2022-08-22T09:23:53.910Z,19.44
2022-08-22T09:25:30.799Z,19.42
2022-08-22T09:27:08.768Z,19.40
2022-08-22T09:28:44.692Z,19.39
2022-08-22T09:30:08.536Z,19.38
2022-08-22T09:31:33.020Z,19.37
2022-08-22T09:33:13.627Z,19.36
2022-08-22T09:34:50.065Z,19.35
2022-08-22T09:36:17.427Z,19.34
2022-08-22T09:37:30.244Z,19.34
2022-08-22T09:39:14.138Z,19.34
2022-08-22T09:40:29.946Z,19.32
2022-08-22T09:42:08.483Z,19.33
2022-08-22T09:43:23.127Z,19.31
2022-08-22T09:44:41.118Z,19.29
2022-08-22T09:46:29.458Z,19.26
2022-08-22T09:47:43.988Z,19.24
2022-08-22T09:49:25.024Z,19.22
2022-08-22T09:50:54.705Z,19.21
2022-08-22T09:52:14.526Z,19.20
2022-08-22T09:53:41.774Z,19.20
2022-08-22T09:55:40.258Z,19.18
2022-08-22T09:57:03.620Z,19.15
2022-08-22T09:58:27.892Z,19.13
2022-08-22T10:00:15.068Z,19.11
2022-08-22T10:01:56.201Z,19.11
2022-08-22T10:03:19.831Z,19.12
2022-08-22T10:04:55.701Z,19.12
2022-08-22T10:06:09.271Z,19.12
2022-08-22T10:07:22.422Z,19.13
2022-08-22T10:09:09.090Z,19.14
2022-08-22T10:10:37.758Z,19.15
2022-08-22T10:11:47.889Z,19.16
2022-08-22T10:13:17.349Z,19.17
2022-08-22T10:14:52.133Z,19.17
2022-08-22T10:15:59.998Z,19.16
2022-08-22T10:17:10.118Z,19.16
2022-08-22T10:18:23.113Z,19.15
2022-08-22T10:19:47.396Z,19.12
2022-08-22T10:21:38.856Z,19.09
2022-08-22T10:23:16.844Z,19.06
2022-08-22T10:25:00.130Z,19.05
2022-08-22T10:26:22.975Z,19.04
2022-08-22T10:27:42.654Z,19.04
2022-08-22T10:28:56.968Z,19.03
2022-08-22T10:30:10.009Z,19.03
2022-08-22T10:31:59.485Z,19.01
2022-08-22T10:33:21.179Z,18.98
2022-08-22T10:34:36.289Z,18.97
2022-08-22T10:36:17.000Z,18.96
2022-08-22T10:37:56.786Z,18.93
2022-08-22T10:39:11.508Z,18.89
2022-08-22T10:40:50.318Z,18.86
2022-08-22T10:42:11.288Z,18.84
2022-08-22T10:43:29.236Z,18.84
2022-08-22T10:44:42.913Z,18.85
2022-08-22T10:46:04.030Z,18.85
2022-08-22T10:47:20.830Z,18.86
2022-08-22T10:48:41.923Z,18.87
2022-08-22T10:50:00.633Z,18.87
2022-08-22T10:51:20.157Z,18.88
2022-08-22T10:52:33.768Z,18.89
2022-08-22T10:54:19.820Z,18.90
2022-08-22T10:55:30.535Z,18.91
2022-08-22T10:57:31.053Z,18.92
2022-08-22T10:58:57.405Z,18.93
2022-08-22T11:00:38.086Z,18.94
2022-08-22T11:02:34.125Z,18.93
2022-08-22T11:04:15.001Z,18.94
2022-08-22T11:05:50.864Z,18.94
2022-08-22T11:07:39.905Z,18.93
2022-08-22T11:09:06.897Z,18.93
2022-08-22T11:10:21.728Z,18.92
2022-08-22T11:11:44.645Z,18.92
2022-08-22T11:13:43.457Z,18.92
2022-08-22T11:15:26.191Z,18.90
2022-08-22T11:17:28.778Z,18.89
2022-08-22T11:19:15.311Z,18.87
2022-08-22T11:20:28.498Z,18.85
2022-08-22T11:21:59.394Z,18.83
2022-08-22T11:23:24.600Z,18.83
2022-08-22T11:25:11.398Z,18.83
2022-08-22T11:26:47.110Z,18.83
2022-08-22T11:28:18.557Z,18.83
2022-08-22T11:29:50.894Z,18.83
2022-08-22T11:31:11.861Z,18.82
2022-08-22T11:32:42.669Z,18.84
2022-08-22T11:34:22.265Z,18.84
2022-08-22T11:35:44.445Z,18.84
2022-08-22T11:36:57.926Z,18.84
2022-08-22T11:38:19.148Z,18.85
2022-08-22T11:40:02.186Z,18.85
2022-08-22T11:41:22.575Z,18.86
2022-08-22T11:43:10.661Z,18.86
2022-08-22T11:44:34.837Z,18.86
2022-08-22T11:45:53.291Z,18.85
2022-08-22T11:47:02.607Z,18.85
2022-08-22T11:48:19.089Z,18.87
2022-08-22T11:49:36.240Z,18.86
2022-08-22T11:50:57.117Z,18.85
2022-08-22T11:52:58.426Z,18.85
2022-08-22T11:54:11.581Z,18.84
2022-08-22T11:55:45.861Z,18.84
2022-08-22T11:56:56.581Z,18.83
2022-08-22T11:58:21.944Z,18.82
2022-08-22T12:00:07.695Z,18.82
2022-08-22T12:01:24.077Z,18.82
2022-08-22T12:02:43.448Z,18.82
2022-08-22T12:04:03.501Z,18.84
2022-08-22T12:05:47.383Z,18.84
2022-08-22T12:07:32.489Z,18.85
2022-08-22T12:08:50.719Z,18.86
2022-08-22T12:10:02.275Z,18.87
2022-08-22T12:11:31.637Z,18.88
2022-08-22T12:12:54.398Z,18.89
2022-08-22T12:14:20.201Z,18.89
2022-08-22T12:15:53.881Z,18.90
2022-08-22T12:17:50.969Z,18.90
2022-08-22T12:19:16.578Z,18.90
2022-08-22T12:20:48.811Z,18.89
2022-08-22T12:22:18.316Z,18.88
2022-08-22T12:23:53.776Z,18.87
2022-08-22T12:25:22.182Z,18.86
2022-08-22T12:26:30.856Z,18.86
2022-08-22T12:28:09.325Z,18.86
2022-08-22T12:29:44.580Z,18.85
2022-08-22T12:31:31.550Z,18.86
2022-08-22T12:33:07.218Z,18.84
2022-08-22T12:34:40.241Z,18.82
2022-08-22T12:36:04.816Z,18.81
2022-08-22T12:37:27.723Z,18.79
2022-08-22T12:38:45.505Z,18.77
2022-08-22T12:40:11.285Z,18.76
2022-08-22T12:41:56.726Z,18.75
2022-08-22T12:43:45.202Z,18.72
2022-08-22T12:45:04.168Z,18.69
2022-08-22T12:46:48.847Z,18.67
2022-08-22T12:48:19.307Z,18.65
2022-08-22T12:49:38.249Z,18.63
2022-08-22T12:51:34.019Z,18.62
2022-08-22T12:53:25.385Z,18.57
2022-08-22T12:54:57.216Z,18.54
2022-08-22T12:56:10.329Z,18.52
2022-08-22T12:57:43.687Z,18.52
2022-08-22T12:59:11.238Z,18.50
2022-08-22T13:00:26.868Z,18.48
2022-08-22T13:01:45.202Z,18.48
2022-08-22T13:03:17.054Z,18.47
2022-08-22T13:04:34.081Z,18.45
2022-08-22T13:05:42.943Z,18.44
2022-08-22T13:06:56.919Z,18.44
2022-08-22T13:08:12.588Z,18.44
2022-08-22T13:09:36.398Z,18.44
2022-08-22T13:10:59.627Z,18.45
2022-08-22T13:12:27.590Z,18.46
2022-08-22T13:13:42.667Z,18.47
2022-08-22T13:15:30.679Z,18.48
2022-08-22T13:16:49.096Z,18.48
2022-08-22T13:18:25.235Z,18.49
2022-08-22T13:19:33.866Z,18.49
2022-08-22T13:20:47.078Z,18.50
2022-08-22T13:22:10.376Z,18.52
2022-08-22T13:23:28.097Z,18.52
2022-08-22T13:24:39.512Z,18.53
2022-08-22T13:26:33.132Z,18.55
2022-08-22T13:27:50.967Z,18.56
2022-08-22T13:29:25.732Z,18.59
2022-08-22T13:30:45.088Z,18.62
2022-08-22T13:32:02.370Z,18.64
2022-08-22T13:33:13.892Z,18.67
2022-08-22T13:34:43.448Z,18.70
2022-08-22T13:36:11.690Z,18.71
2022-08-22T13:37:50.083Z,18.75
2022-08-22T13:39:23.740Z,18.81
2022-08-22T13:40:32.092Z,18.89
2022-08-22T13:41:51.873Z,18.99
2022-08-22T13:43:14.714Z,19.08
2022-08-22T13:44:31.244Z,19.14
2022-08-22T13:45:39.265Z,19.19
2022-08-22T13:47:12.963Z,19.23
2022-08-22T13:48:19.354Z,19.29
2022-08-22T13:50:10.933Z,19.37
2022-08-22T13:51:24.309Z,19.52
2022-08-22T13:53:10.339Z,19.63
2022-08-22T13:54:18.557Z,19.77
2022-08-22T13:55:51.852Z,19.86
2022-08-22T13:57:05.105Z,19.98
2022-08-22T13:58:43.689Z,20.07
2022-08-22T14:00:22.392Z,20.21
2022-08-22T14:01:41.002Z,20.40
2022-08-22T14:03:19.821Z,20.55
2022-08-22T14:04:35.886Z,20.76
2022-08-22T14:05:58.824Z,20.95
2022-08-22T14:07:53.037Z,21.16
2022-08-22T14:09:09.799Z,21.35
2022-08-22T14:10:28.678Z,21.50
2022-08-22T14:11:54.190Z,21.62
2022-08-22T14:13:28.831Z,21.79
2022-08-22T14:14:38.480Z,21.94
2022-08-22T14:15:49.358Z,22.04
2022-08-22T14:17:02.170Z,22.07
2022-08-22T14:18:30.483Z,22.03
2022-08-22T14:19:53.076Z,21.98
2022-08-22T14:21:43.942Z,21.92
2022-08-22T14:23:10.575Z,21.96
2022-08-22T14:24:25.718Z,22.03
2022-08-22T14:25:38.855Z,22.11
2022-08-22T14:26:57.816Z,22.15
2022-08-22T14:28:10.029Z,22.22
2022-08-22T14:29:19.366Z,22.27
2022-08-22T14:30:33.849Z,22.37
2022-08-22T14:31:42.875Z,22.48
2022-08-22T14:32:54.083Z,22.65
2022-08-22T14:34:20.513Z,22.84
2022-08-22T14:35:35.148Z,23.08
2022-08-22T14:37:24.178Z,23.30
2022-08-22T14:38:36.823Z,23.58
2022-08-22T14:39:59.147Z,23.77
2022-08-22T14:41:56.561Z,23.88
2022-08-22T14:43:22.464Z,23.95
2022-08-22T14:44:58.114Z,24.17
2022-08-22T14:46:10.611Z,24.42
2022-08-22T14:47:55.116Z,24.61
2022-08-22T14:49:31.438Z,24.78
2022-08-22T14:50:55.828Z,24.93
2022-08-22T14:52:19.668Z,25.04
2022-08-22T14:53:34.817Z,25.04
2022-08-22T14:54:42.775Z,25.01
2022-08-22T14:56:14.118Z,24.94
2022-08-22T14:57:26.762Z,24.92
2022-08-22T14:58:39.041Z,24.89
2022-08-22T14:59:50.285Z,24.81
2022-08-22T15:00:59.466Z,24.72
2022-08-22T15:02:30.987Z,24.74
2022-08-22T15:04:00.542Z,24.86
2022-08-22T15:05:37.992Z,24.95
2022-08-22T15:06:58.669Z,24.98
2022-08-22T15:08:09.217Z,25.10
2022-08-22T15:09:33.796Z,25.17
2022-08-22T15:10:43.166Z,25.18
2022-08-22T15:11:51.666Z,25.16
2022-08-22T15:13:03.497Z,25.24
2022-08-22T15:14:25.005Z,25.43
2022-08-22T15:15:55.003Z,25.61
2022-08-22T15:17:09.939Z,25.75
2022-08-22T15:18:29.264Z,25.88
2022-08-22T15:19:52.166Z,26.05
2022-08-22T15:21:24.735Z,26.18
2022-08-22T15:22:33.175Z,26.43
2022-08-22T15:23:47.132Z,26.72
2022-08-22T15:25:08.967Z,27.06
2022-08-22T15:26:25.615Z,27.35
2022-08-22T15:27:36.321Z,27.35
2022-08-22T15:28:52.374Z,27.35
2022-08-22T15:30:16.518Z,27.35
2022-08-22T15:31:31.672Z,27.36
2022-08-22T15:32:42.132Z,27.37
2022-08-22T15:33:49.830Z,27.48
2022-08-22T15:35:29.933Z,27.68
2022-08-22T15:37:07.715Z,27.83
2022-08-22T15:38:36.225Z,27.94
2022-08-22T15:40:08.370Z,28.04
2022-08-22T15:41:36.510Z,28.03
2022-08-22T15:42:47.778Z,27.94
2022-08-22T15:44:03.253Z,27.85
2022-08-22T15:45:36.064Z,27.81
2022-08-22T15:47:02.717Z,27.80
2022-08-22T15:48:14.892Z,27.88
2022-08-22T15:49:22.891Z,28.00
2022-08-22T15:50:39.197Z,28.02
2022-08-22T15:52:05.541Z,28.04
2022-08-22T15:53:25.563Z,28.15
2022-08-22T15:54:34.730Z,28.34
2022-08-22T15:56:07.306Z,28.38
2022-08-22T15:57:40.096Z,28.27
2022-08-22T15:58:51.378Z,28.15
2022-08-22T16:00:45.217Z,28.16
2022-08-22T16:02:00.984Z,28.25
2022-08-22T16:03:27.939Z,28.35
2022-08-22T16:04:50.528Z,28.51
2022-08-22T16:06:07.663Z,28.60
2022-08-22T16:07:52.960Z,28.75
2022-08-22T16:09:04.046Z,28.98
2022-08-22T16:10:25.445Z,29.16
2022-08-22T16:11:37.316Z,29.37
2022-08-22T16:12:47.380Z,29.45
2022-08-22T16:14:21.244Z,29.43
2022-08-22T16:15:57.181Z,29.41
2022-08-22T16:17:08.193Z,29.39
2022-08-22T16:18:43.967Z,29.34
2022-08-22T16:19:51.890Z,29.33
2022-08-22T16:21:00.612Z,29.34
2022-08-22T16:22:09.724Z,29.42
2022-08-22T16:23:17.863Z,29.51
2022-08-22T16:24:29.138Z,29.65
2022-08-22T16:25:51.569Z,29.73
2022-08-22T16:26:59.753Z,29.83
2022-08-22T16:28:15.028Z,29.99
2022-08-22T16:29:52.460Z,30.03
2022-08-22T16:31:01.339Z,30.01
2022-08-22T16:32:11.226Z,30.13
2022-08-22T16:33:52.939Z,30.31
2022-08-22T16:35:02.266Z,30.37
2022-08-22T16:36:46.075Z,30.33
2022-08-22T16:37:54.065Z,30.32
2022-08-22T16:39:02.636Z,30.38
2022-08-22T16:40:21.448Z,30.50
2022-08-22T16:41:38.545Z,30.52
2022-08-22T16:42:53.279Z,30.43
2022-08-22T16:44:31.649Z,30.41
2022-08-22T16:45:43.428Z,30.38
2022-08-22T16:47:18.557Z,30.23
2022-08-22T16:48:33.392Z,30.26
2022-08-22T16:49:57.477Z,30.23
2022-08-22T16:51:13.883Z,30.16
2022-08-22T16:52:27.770Z,30.06
2022-08-22T16:53:45.860Z,30.11
2022-08-22T16:55:01.896Z,30.27
2022-08-22T16:56:28.759Z,30.29
2022-08-22T16:58:06.387Z,30.37
2022-08-22T16:59:38.341Z,30.43
2022-08-22T17:00:57.715Z,30.43
2022-08-22T17:02:28.202Z,30.42
2022-08-22T17:03:43.500Z,30.36
2022-08-22T17:05:01.458Z,30.38
2022-08-22T17:06:38.635Z,30.45
2022-08-22T17:07:54.762Z,30.40
2022-08-22T17:09:38.540Z,30.22
2022-08-22T17:11:04.753Z,30.33
2022-08-22T17:12:33.607Z,30.50
2022-08-22T17:14:23.187Z,30.63
2022-08-22T17:16:13.959Z,30.55
2022-08-22T17:17:31.549Z,30.70
2022-08-22T17:19:15.239Z,30.87
2022-08-22T17:20:45.597Z,30.99
2022-08-22T17:22:04.699Z,31.00
2022-08-22T17:23:39.421Z,30.99
2022-08-22T17:25:11.396Z,30.87
2022-08-22T17:26:32.958Z,30.70
2022-08-22T17:27:44.638Z,30.65
2022-08-22T17:29:10.924Z,30.53
2022-08-22T17:30:56.374Z,30.49
2022-08-22T17:32:36.549Z,30.57
2022-08-22T17:33:51.643Z,30.82
2022-08-22T17:35:20.065Z,30.99
2022-08-22T17:37:00.574Z,31.15
2022-08-22T17:38:34.986Z,31.28
2022-08-22T17:40:23.292Z,31.33
2022-08-22T17:41:56.687Z,31.28
2022-08-22T17:43:33.693Z,31.14
2022-08-22T17:45:37.185Z,31.04
2022-08-22T17:46:57.905Z,30.97
2022-08-22T17:48:15.198Z,31.07
2022-08-22T17:50:30.100Z,31.20
2022-08-22T17:51:44.922Z,31.13
2022-08-22T17:52:54.132Z,31.05
2022-08-22T17:54:29.661Z,31.05
2022-08-22T17:56:02.104Z,31.13
2022-08-22T17:57:33.310Z,31.29
2022-08-22T17:59:16.043Z,31.51
2022-08-22T18:00:33.150Z,31.55
2022-08-22T18:02:01.712Z,31.59
2022-08-22T18:03:39.940Z,31.51
2022-08-22T18:04:52.299Z,31.41
2022-08-22T18:06:28.769Z,31.33
2022-08-22T18:08:00.020Z,31.46
2022-08-22T18:09:20.222Z,31.66
2022-08-22T18:10:58.262Z,31.73